createdAt,value
2023-03-27T00:00:27.540Z,60.63
2023-03-27T00:02:57.714Z,60.61
2023-03-27T00:05:27.934Z,60.64
2023-03-27T00:07:56.002Z,60.63
2023-03-27T00:10:24.831Z,60.68
2023-03-27T00:12:53.333Z,60.82
2023-03-27T00:15:22.131Z,60.91
2023-03-27T00:17:51.840Z,61.00
2023-03-27T00:20:30.304Z,61.08
2023-03-27T00:23:02.641Z,61.17
2023-03-27T00:25:30.839Z,61.22
2023-03-27T00:28:09.141Z,61.28
2023-03-27T00:30:42.358Z,61.31
2023-03-27T00:33:13.651Z,61.39
2023-03-27T00:35:46.046Z,61.37
2023-03-27T00:38:16.422Z,61.44
2023-03-27T00:40:45.559Z,61.58
2023-03-27T00:43:20.787Z,61.64
2023-03-27T00:45:51.052Z,61.75
2023-03-27T00:48:20.411Z,61.74
2023-03-27T00:50:48.438Z,61.79
2023-03-27T00:53:18.249Z,61.82
2023-03-27T00:55:48.848Z,61.80
2023-03-27T00:58:20.215Z,61.98
2023-03-27T01:00:49.937Z,61.99
2023-03-27T01:03:20.231Z,62.10
2023-03-27T01:05:48.942Z,62.16
2023-03-27T01:08:17.761Z,62.25
2023-03-27T01:10:59.585Z,62.33
2023-03-27T01:14:01.516Z,62.39
2023-03-27T01:16:42.201Z,62.43
2023-03-27T01:19:26.561Z,62.57
2023-03-27T01:22:13.896Z,62.60
2023-03-27T01:25:04.082Z,62.80
2023-03-27T01:27:38.126Z,62.84
2023-03-27T01:30:42.853Z,62.92
2023-03-27T01:33:12.430Z,62.90
2023-03-27T01:35:55.931Z,62.96
2023-03-27T01:38:58.406Z,62.93
2023-03-27T01:41:30.324Z,63.06
2023-03-27T01:44:00.893Z,63.09
2023-03-27T01:46:35.964Z,63.08
2023-03-27T01:49:24.576Z,63.19
2023-03-27T01:52:00.265Z,63.16
2023-03-27T01:54:32.892Z,63.23
2023-03-27T01:57:08.465Z,63.28
2023-03-27T01:59:41.178Z,63.32
2023-03-27T02:02:14.835Z,63.29
2023-03-27T02:04:52.582Z,63.31
2023-03-27T02:07:28.459Z,63.35
2023-03-27T02:09:58.917Z,63.34
2023-03-27T02:12:38.070Z,63.39
2023-03-27T02:15:22.576Z,63.37
2023-03-27T02:17:57.337Z,63.36
2023-03-27T02:20:25.587Z,63.39
2023-03-27T02:23:01.028Z,63.41
2023-03-27T02:25:35.232Z,63.47
2023-03-27T02:28:12.952Z,63.52
2023-03-27T02:31:33.251Z,63.55
2023-03-27T02:34:15.398Z,63.60
2023-03-27T02:36:46.323Z,63.66
2023-03-27T02:39:20.577Z,63.62
2023-03-27T02:42:00.371Z,63.64
2023-03-27T02:44:46.464Z,63.65
2023-03-27T02:47:17.014Z,63.74
2023-03-27T02:49:52.933Z,63.79
2023-03-27T02:52:29.225Z,63.79
2023-03-27T02:55:06.235Z,63.83
2023-03-27T02:57:38.899Z,63.94
2023-03-27T03:00:28.138Z,63.96
2023-03-27T03:03:28.063Z,64.01
2023-03-27T03:06:11.497Z,64.05
2023-03-27T03:08:41.254Z,64.03
2023-03-27T03:11:12.032Z,64.09
2023-03-27T03:13:43.238Z,64.11
2023-03-27T03:16:11.661Z,64.12
2023-03-27T03:18:41.330Z,64.24
2023-03-27T03:21:12.076Z,64.34
2023-03-27T03:23:41.360Z,64.46
2023-03-27T03:26:32.395Z,64.48
2023-03-27T03:29:02.384Z,64.57
2023-03-27T03:31:43.284Z,64.59
2023-03-27T03:34:16.935Z,64.64
2023-03-27T03:36:49.822Z,64.61
2023-03-27T03:39:25.086Z,64.67
2023-03-27T03:41:53.948Z,64.79
2023-03-27T03:44:22.061Z,64.80
2023-03-27T03:46:50.417Z,64.75
2023-03-27T03:49:22.080Z,64.70
2023-03-27T03:52:04.384Z,64.68
2023-03-27T03:54:34.125Z,64.64
2023-03-27T03:57:03.510Z,64.63
2023-03-27T03:59:33.098Z,64.52
2023-03-27T04:02:31.323Z,64.48
2023-03-27T04:05:08.624Z,64.45
2023-03-27T04:07:40.231Z,64.39
2023-03-27T04:10:23.133Z,64.27
2023-03-27T04:12:52.767Z,64.20
2023-03-27T04:15:28.439Z,64.20
2023-03-27T04:18:15.413Z,64.08
2023-03-27T04:20:50.141Z,63.96
2023-03-27T04:23:19.832Z,63.95
2023-03-27T04:25:48.566Z,63.94
2023-03-27T04:28:21.611Z,63.93
2023-03-27T04:30:58.354Z,63.91
2023-03-27T04:33:53.278Z,63.84
2023-03-27T04:36:37.700Z,63.82
2023-03-27T04:39:11.415Z,63.79
2023-03-27T04:41:54.045Z,63.78
2023-03-27T04:44:22.312Z,63.70
2023-03-27T04:46:50.417Z,63.61
2023-03-27T04:49:20.544Z,63.66
2023-03-27T04:52:02.344Z,63.65
2023-03-27T04:54:33.563Z,63.52
2023-03-27T04:57:03.410Z,63.55
2023-03-27T04:59:34.250Z,63.55
2023-03-27T05:02:23.354Z,63.52
2023-03-27T05:05:05.411Z,63.50
2023-03-27T05:07:37.097Z,63.49
2023-03-27T05:10:06.414Z,63.37
2023-03-27T05:12:35.050Z,63.25
2023-03-27T05:15:07.500Z,63.11
2023-03-27T05:17:41.908Z,62.98
2023-03-27T05:20:19.283Z,62.74
2023-03-27T05:22:49.748Z,62.57
2023-03-27T05:25:26.752Z,62.25
2023-03-27T05:27:55.949Z,62.05
2023-03-27T05:30:27.368Z,61.66
2023-03-27T05:33:14.059Z,61.43
2023-03-27T05:35:46.308Z,61.25
2023-03-27T05:38:15.752Z,61.08
2023-03-27T05:41:04.468Z,60.79
2023-03-27T05:43:35.933Z,60.66
2023-03-27T05:46:04.575Z,60.45
2023-03-27T05:48:33.758Z,60.28
2023-03-27T05:51:03.229Z,60.02
2023-03-27T05:53:32.524Z,59.79
2023-03-27T05:56:12.791Z,59.65
2023-03-27T05:58:51.490Z,59.45
2023-03-27T06:01:21.051Z,59.29
2023-03-27T06:03:55.415Z,59.13
2023-03-27T06:06:35.445Z,58.91
2023-03-27T06:09:05.392Z,58.81
2023-03-27T06:11:34.763Z,58.87
2023-03-27T06:14:04.315Z,57.97
2023-03-27T06:17:04.015Z,54.96
2023-03-27T06:19:46.884Z,52.15
2023-03-27T06:22:15.050Z,50.08
2023-03-27T06:24:45.898Z,48.33
2023-03-27T06:27:15.243Z,45.81
2023-03-27T06:29:43.730Z,43.55
2023-03-27T06:32:12.345Z,41.32
2023-03-27T06:34:46.058Z,38.72
2023-03-27T06:37:53.378Z,35.76
2023-03-27T06:40:24.426Z,33.90
2023-03-27T06:42:54.938Z,32.61
2023-03-27T06:45:41.768Z,31.49
2023-03-27T06:48:36.860Z,30.86
2023-03-27T06:51:06.964Z,30.87
2023-03-27T06:53:38.098Z,31.01
2023-03-27T06:56:08.174Z,30.83
2023-03-27T06:59:01.571Z,30.48
2023-03-27T07:01:30.328Z,30.20
2023-03-27T07:04:17.689Z,29.54
2023-03-27T07:07:05.123Z,28.82
2023-03-27T07:09:39.449Z,28.53
2023-03-27T07:12:14.300Z,28.42
2023-03-27T07:14:44.438Z,28.32
2023-03-27T07:17:13.164Z,27.42
2023-03-27T07:19:55.770Z,27.62
2023-03-27T07:22:28.003Z,28.30
2023-03-27T07:24:57.137Z,28.31
2023-03-27T07:27:26.360Z,27.58
2023-03-27T07:30:01.597Z,26.82
2023-03-27T07:32:38.198Z,26.55
2023-03-27T07:35:09.324Z,26.84
2023-03-27T07:38:03.836Z,27.67
2023-03-27T07:40:40.454Z,29.85
2023-03-27T07:43:27.495Z,31.45
2023-03-27T07:45:56.338Z,32.16
2023-03-27T07:48:27.874Z,33.05
2023-03-27T07:51:10.769Z,33.73
2023-03-27T07:53:41.909Z,34.47
2023-03-27T07:56:22.139Z,34.99
2023-03-27T07:58:53.274Z,36.03
2023-03-27T08:01:22.612Z,36.82
2023-03-27T08:03:52.910Z,37.17
2023-03-27T08:06:22.936Z,37.53
2023-03-27T08:08:51.842Z,37.65
2023-03-27T08:11:30.247Z,37.70
2023-03-27T08:13:59.194Z,38.01
2023-03-27T08:16:30.161Z,38.34
2023-03-27T08:19:01.514Z,38.51
2023-03-27T08:21:33.561Z,38.93
2023-03-27T08:24:03.573Z,39.31
2023-03-27T08:26:35.359Z,39.95
2023-03-27T08:29:09.092Z,40.52
2023-03-27T08:31:38.149Z,40.81
2023-03-27T08:34:06.862Z,41.07
2023-03-27T08:36:45.376Z,41.11
2023-03-27T08:39:14.039Z,40.84
2023-03-27T08:42:17.803Z,41.50
2023-03-27T08:44:55.036Z,41.64
2023-03-27T08:47:41.947Z,41.61
2023-03-27T08:50:33.130Z,41.92
2023-03-27T08:53:23.711Z,42.02
2023-03-27T08:55:52.557Z,42.23
2023-03-27T08:58:38.181Z,42.45
2023-03-27T09:02:16.477Z,42.07
2023-03-27T09:04:54.154Z,42.09
2023-03-27T09:07:34.455Z,42.18
2023-03-27T09:10:51.277Z,42.00
2023-03-27T09:13:44.540Z,41.70
2023-03-27T09:16:18.006Z,41.10
2023-03-27T09:19:06.383Z,40.69
2023-03-27T09:21:44.764Z,41.09
2023-03-27T09:24:27.429Z,41.09
2023-03-27T09:27:32.733Z,41.13
2023-03-27T09:30:37.825Z,40.74
2023-03-27T09:33:24.410Z,41.08
2023-03-27T09:35:53.070Z,41.34
2023-03-27T09:38:43.165Z,41.40
2023-03-27T09:41:17.363Z,41.16
2023-03-27T09:43:49.930Z,41.14
2023-03-27T09:46:20.320Z,40.89
2023-03-27T09:49:06.189Z,40.80
2023-03-27T09:51:38.030Z,40.51
2023-03-27T09:54:12.938Z,39.93
2023-03-27T09:56:50.188Z,39.40
2023-03-27T09:59:26.679Z,39.79
2023-03-27T10:01:57.544Z,39.64
2023-03-27T10:04:27.760Z,39.36
2023-03-27T10:07:08.462Z,39.13
2023-03-27T10:10:07.072Z,38.85
2023-03-27T10:12:39.990Z,38.75
2023-03-27T10:15:35.046Z,38.53
2023-03-27T10:18:07.505Z,38.54
2023-03-27T10:20:41.514Z,38.66
2023-03-27T10:23:25.173Z,38.47
2023-03-27T10:25:56.485Z,37.94
2023-03-27T10:28:29.059Z,37.67
2023-03-27T10:31:29.880Z,37.25
2023-03-27T10:34:28.676Z,37.10
2023-03-27T10:37:26.836Z,36.77
2023-03-27T10:40:02.378Z,36.85
2023-03-27T10:42:38.187Z,37.29
2023-03-27T10:45:15.376Z,37.33
2023-03-27T10:47:47.477Z,37.45
2023-03-27T10:50:26.874Z,37.57
2023-03-27T10:53:06.128Z,37.72
2023-03-27T10:55:52.092Z,37.45
2023-03-27T10:58:22.136Z,37.03
2023-03-27T11:01:43.076Z,37.19
2023-03-27T11:04:24.881Z,37.00
2023-03-27T11:06:57.349Z,36.75
2023-03-27T11:09:37.993Z,36.49
2023-03-27T11:12:12.753Z,36.18
2023-03-27T11:14:52.672Z,36.46
2023-03-27T11:17:29.078Z,35.98
2023-03-27T11:20:44.928Z,35.61
2023-03-27T11:23:34.323Z,35.76
2023-03-27T11:27:01.444Z,35.83
2023-03-27T11:29:32.403Z,35.57
2023-03-27T11:32:11.424Z,35.17
2023-03-27T11:34:57.838Z,34.71
2023-03-27T11:37:53.447Z,34.92
2023-03-27T11:40:46.298Z,35.22
2023-03-27T11:43:15.576Z,35.07
2023-03-27T11:46:22.809Z,35.12
2023-03-27T11:49:30.136Z,35.01
2023-03-27T11:52:05.618Z,35.22
2023-03-27T11:55:22.496Z,35.07
2023-03-27T11:58:10.252Z,34.82
2023-03-27T12:01:08.194Z,35.26
2023-03-27T12:03:59.328Z,35.15
2023-03-27T12:06:51.234Z,34.42
2023-03-27T12:09:34.868Z,34.62
2023-03-27T12:13:03.365Z,34.40
2023-03-27T12:15:57.399Z,34.77
2023-03-27T12:18:41.391Z,34.83
2023-03-27T12:21:36.121Z,35.18
2023-03-27T12:24:19.847Z,35.23
2023-03-27T12:27:26.196Z,35.29
2023-03-27T12:30:44.306Z,34.86
2023-03-27T12:33:24.137Z,34.52
2023-03-27T12:35:54.265Z,34.27
2023-03-27T12:38:29.047Z,33.72
2023-03-27T12:41:03.121Z,33.71
2023-03-27T12:43:45.097Z,33.24
2023-03-27T12:46:24.875Z,33.14
2023-03-27T12:48:58.669Z,33.56
2023-03-27T12:51:52.000Z,33.81
2023-03-27T12:54:38.675Z,34.22
2023-03-27T12:57:26.558Z,33.61
2023-03-27T13:00:07.562Z,33.28
2023-03-27T13:03:19.643Z,33.59
2023-03-27T13:06:06.630Z,34.13
2023-03-27T13:09:09.125Z,34.39
2023-03-27T13:12:02.815Z,34.52
2023-03-27T13:15:07.109Z,34.58
2023-03-27T13:17:58.997Z,34.59
2023-03-27T13:20:51.149Z,34.58
2023-03-27T13:23:52.727Z,34.49
2023-03-27T13:26:31.910Z,34.56
2023-03-27T13:29:01.594Z,34.36
2023-03-27T13:31:46.619Z,34.41
2023-03-27T13:34:28.585Z,34.13
2023-03-27T13:37:14.129Z,33.86
2023-03-27T13:39:59.441Z,34.19
2023-03-27T13:42:30.752Z,34.42
2023-03-27T13:45:05.853Z,34.26
2023-03-27T13:48:20.472Z,34.44
2023-03-27T13:51:14.484Z,34.57
2023-03-27T13:54:20.970Z,34.88
2023-03-27T13:57:31.487Z,35.20
2023-03-27T14:00:24.475Z,35.43
2023-03-27T14:03:21.896Z,35.59
2023-03-27T14:06:12.006Z,35.68
2023-03-27T14:09:26.691Z,35.91
2023-03-27T14:12:29.627Z,36.01
2023-03-27T14:15:30.155Z,36.01
2023-03-27T14:18:58.401Z,35.85
2023-03-27T14:21:38.728Z,35.70
2023-03-27T14:24:34.781Z,35.70
2023-03-27T14:27:16.376Z,35.80
2023-03-27T14:29:45.248Z,35.89
2023-03-27T14:32:17.552Z,35.77
2023-03-27T14:34:55.152Z,35.64
2023-03-27T14:37:39.049Z,35.51
2023-03-27T14:40:42.336Z,35.82
2023-03-27T14:43:11.886Z,35.99
2023-03-27T14:45:43.401Z,36.01
2023-03-27T14:48:27.134Z,36.01
2023-03-27T14:50:58.163Z,36.13
2023-03-27T14:53:29.015Z,35.99
2023-03-27T14:56:31.580Z,36.34
2023-03-27T14:59:28.632Z,36.40
2023-03-27T15:02:03.678Z,36.65
2023-03-27T15:04:32.744Z,36.76
2023-03-27T15:07:14.491Z,36.74
2023-03-27T15:10:03.647Z,36.87
2023-03-27T15:12:51.023Z,37.13
2023-03-27T15:15:27.327Z,37.74
2023-03-27T15:17:56.158Z,38.21
2023-03-27T15:20:29.829Z,38.70
2023-03-27T15:23:07.177Z,39.66
2023-03-27T15:25:43.070Z,40.08
2023-03-27T15:28:26.119Z,40.37
2023-03-27T15:30:56.869Z,40.45
2023-03-27T15:33:35.319Z,40.63
2023-03-27T15:36:06.526Z,40.71
2023-03-27T15:38:35.660Z,40.67
2023-03-27T15:41:16.530Z,40.61
2023-03-27T15:43:44.702Z,40.41
2023-03-27T15:46:16.040Z,40.50
2023-03-27T15:48:45.971Z,40.46
2023-03-27T15:51:28.624Z,40.36
2023-03-27T15:53:57.528Z,40.46
2023-03-27T15:56:29.256Z,40.56
2023-03-27T15:59:01.924Z,40.70
2023-03-27T16:01:41.285Z,40.63
2023-03-27T16:04:13.142Z,40.61
2023-03-27T16:06:44.487Z,40.69
2023-03-27T16:09:38.900Z,40.64
2023-03-27T16:12:09.816Z,40.82
2023-03-27T16:14:42.765Z,40.83
2023-03-27T16:17:20.707Z,40.88
2023-03-27T16:19:54.721Z,40.95
2023-03-27T16:22:33.238Z,40.94
2023-03-27T16:25:01.979Z,40.89
2023-03-27T16:27:46.017Z,40.94
2023-03-27T16:30:23.558Z,40.83
2023-03-27T16:32:53.713Z,40.75
2023-03-27T16:35:22.991Z,40.68
2023-03-27T16:37:51.431Z,40.58
2023-03-27T16:40:19.683Z,40.72
2023-03-27T16:42:47.878Z,40.67
2023-03-27T16:45:16.214Z,40.63
2023-03-27T16:47:50.719Z,40.64
2023-03-27T16:50:22.697Z,40.72
2023-03-27T16:52:51.665Z,40.77
2023-03-27T16:55:20.046Z,40.69
2023-03-27T16:57:48.540Z,40.70
2023-03-27T17:00:16.940Z,40.69
2023-03-27T17:02:47.267Z,40.61
2023-03-27T17:05:15.839Z,40.41
2023-03-27T17:07:46.619Z,40.36
2023-03-27T17:10:18.481Z,40.40
2023-03-27T17:12:47.397Z,40.42
2023-03-27T17:15:16.813Z,40.36
2023-03-27T17:17:50.250Z,40.52
2023-03-27T17:20:18.867Z,40.79
2023-03-27T17:22:46.968Z,40.84
2023-03-27T17:25:16.051Z,41.05
2023-03-27T17:27:44.344Z,41.20
2023-03-27T17:30:16.025Z,41.32
2023-03-27T17:32:48.781Z,41.43
2023-03-27T17:35:17.249Z,41.55
2023-03-27T17:37:46.653Z,41.69
2023-03-27T17:40:15.470Z,41.76
2023-03-27T17:42:43.937Z,41.88
2023-03-27T17:45:21.543Z,42.08
2023-03-27T17:47:51.060Z,42.18
2023-03-27T17:50:19.399Z,42.71
2023-03-27T17:52:47.780Z,42.95
2023-03-27T17:55:16.447Z,43.16
2023-03-27T17:57:47.450Z,42.90
2023-03-27T18:00:19.816Z,42.55
2023-03-27T18:02:48.911Z,42.50
2023-03-27T18:05:17.423Z,42.59
2023-03-27T18:07:45.543Z,42.75
2023-03-27T18:10:19.288Z,42.82
2023-03-27T18:12:47.614Z,42.85
2023-03-27T18:15:16.538Z,42.92
2023-03-27T18:17:47.178Z,42.92
2023-03-27T18:20:15.658Z,43.05
2023-03-27T18:22:43.909Z,43.17
2023-03-27T18:25:12.043Z,43.23
2023-03-27T18:27:40.558Z,43.11
2023-03-27T18:30:11.729Z,42.99
2023-03-27T18:32:41.601Z,42.62
2023-03-27T18:35:14.054Z,42.43
2023-03-27T18:37:42.729Z,42.50
2023-03-27T18:40:12.221Z,42.36
2023-03-27T18:43:00.230Z,42.42
2023-03-27T18:45:28.512Z,42.28
2023-03-27T18:47:56.663Z,42.22
2023-03-27T18:50:26.109Z,42.32
2023-03-27T18:52:54.391Z,42.44
2023-03-27T18:55:22.687Z,42.40
2023-03-27T18:57:51.156Z,42.37
2023-03-27T19:00:21.097Z,42.53
2023-03-27T19:02:57.100Z,42.93
2023-03-27T19:05:25.840Z,47.62
2023-03-27T19:07:57.774Z,48.60
2023-03-27T19:10:26.835Z,52.55
2023-03-27T19:13:16.360Z,53.57
2023-03-27T19:16:14.339Z,50.92
2023-03-27T19:19:13.503Z,50.43
2023-03-27T19:21:54.070Z,50.27
2023-03-27T19:24:33.294Z,49.95
2023-03-27T19:27:03.043Z,49.84
2023-03-27T19:29:31.426Z,49.69
2023-03-27T19:31:59.770Z,49.70
2023-03-27T19:34:40.121Z,49.74
2023-03-27T19:37:10.990Z,49.83
2023-03-27T19:39:39.840Z,50.01
2023-03-27T19:42:08.121Z,50.19
2023-03-27T19:44:40.092Z,50.15
2023-03-27T19:47:09.783Z,50.29
2023-03-27T19:49:38.418Z,50.13
2023-03-27T19:52:20.002Z,50.21
2023-03-27T19:54:54.129Z,50.22
2023-03-27T19:57:25.604Z,50.09
2023-03-27T19:59:53.647Z,50.05
2023-03-27T20:02:21.926Z,49.75
2023-03-27T20:04:50.779Z,49.74
2023-03-27T20:07:19.725Z,49.51
2023-03-27T20:09:48.955Z,49.40
2023-03-27T20:12:19.907Z,48.97
2023-03-27T20:15:02.342Z,48.63
2023-03-27T20:17:44.937Z,48.16
2023-03-27T20:20:13.129Z,48.04
2023-03-27T20:22:56.427Z,47.85
2023-03-27T20:25:28.233Z,47.73
2023-03-27T20:27:57.160Z,47.50
2023-03-27T20:30:25.887Z,47.22
2023-03-27T20:32:54.552Z,47.15
2023-03-27T20:35:24.828Z,47.15
2023-03-27T20:37:57.919Z,46.97
2023-03-27T20:40:30.289Z,46.97
2023-03-27T20:43:03.692Z,46.89
2023-03-27T20:45:32.590Z,46.83
2023-03-27T20:48:03.473Z,46.93
2023-03-27T20:50:35.609Z,47.39
2023-03-27T20:53:04.720Z,48.06
2023-03-27T20:55:39.331Z,48.27
2023-03-27T20:58:10.782Z,48.57
2023-03-27T21:00:39.340Z,48.68
2023-03-27T21:03:08.670Z,48.67
2023-03-27T21:05:38.409Z,48.74
2023-03-27T21:08:08.353Z,49.05
2023-03-27T21:10:41.741Z,49.14
2023-03-27T21:13:11.658Z,48.98
2023-03-27T21:15:42.479Z,48.93
2023-03-27T21:18:10.975Z,48.95
2023-03-27T21:20:39.103Z,49.01
2023-03-27T21:23:10.658Z,48.95
2023-03-27T21:25:39.862Z,48.93
2023-03-27T21:28:08.079Z,48.96
2023-03-27T21:30:46.823Z,48.88
2023-03-27T21:33:16.541Z,48.76
2023-03-27T21:35:47.529Z,48.78
2023-03-27T21:38:17.620Z,48.76
2023-03-27T21:40:47.463Z,48.74
2023-03-27T21:43:15.999Z,48.72
2023-03-27T21:45:44.591Z,48.88
2023-03-27T21:48:19.730Z,48.83
2023-03-27T21:50:49.138Z,48.88
2023-03-27T21:53:17.526Z,49.13
2023-03-27T21:55:49.294Z,49.33
2023-03-27T21:58:17.373Z,49.46
2023-03-27T22:00:50.752Z,49.34
2023-03-27T22:03:20.884Z,49.36
2023-03-27T22:06:00.954Z,49.14
2023-03-27T22:08:38.347Z,49.70
2023-03-27T22:11:06.703Z,49.34
2023-03-27T22:13:36.387Z,49.34
2023-03-27T22:16:10.975Z,49.19
2023-03-27T22:18:39.676Z,49.20
2023-03-27T22:21:17.827Z,49.39
2023-03-27T22:23:46.329Z,49.55
2023-03-27T22:26:14.916Z,49.77
2023-03-27T22:28:50.057Z,50.16
2023-03-27T22:31:20.463Z,50.44
2023-03-27T22:33:48.936Z,50.45
2023-03-27T22:36:17.358Z,50.24
2023-03-27T22:38:46.616Z,50.19
2023-03-27T22:41:20.377Z,50.23
2023-03-27T22:43:49.883Z,50.20
2023-03-27T22:46:19.867Z,50.08
2023-03-27T22:48:48.420Z,50.08
2023-03-27T22:51:16.556Z,50.17
2023-03-27T22:53:44.915Z,50.08
2023-03-27T22:56:13.095Z,50.08
2023-03-27T22:58:41.242Z,50.16
2023-03-27T23:01:09.312Z,50.25
2023-03-27T23:03:38.389Z,50.33
2023-03-27T23:07:04.165Z,50.41
2023-03-27T23:09:56.494Z,50.41
2023-03-27T23:12:24.904Z,50.52
2023-03-27T23:14:54.695Z,50.56
2023-03-27T23:17:23.380Z,50.60
2023-03-27T23:19:58.362Z,50.62
2023-03-27T23:22:27.784Z,50.72
2023-03-27T23:24:56.536Z,50.71
2023-03-27T23:27:24.801Z,50.89
2023-03-27T23:29:53.086Z,50.98
2023-03-27T23:32:28.505Z,51.24
2023-03-27T23:34:56.809Z,51.36
2023-03-27T23:38:21.832Z,51.36
2023-03-27T23:41:10.329Z,51.70
2023-03-27T23:43:38.503Z,51.85
2023-03-27T23:46:11.561Z,51.99
2023-03-27T23:48:41.411Z,52.12
2023-03-27T23:51:09.927Z,52.34
2023-03-27T23:53:39.101Z,52.40
2023-03-27T23:56:07.818Z,52.53
2023-03-27T23:58:37.507Z,52.63
